Radisson, Canada
Current Conditions -  °F | °C
As of 4:00 PM on Thursday 18 Dec 2014 (Local Time) from CYGL Reporting Station
Clear Clear  
Wind Chill: -7°   Ceiling: Unl
Heat Index:   Visibility: 15mi
Dew Point:   Wind: 7mph
Humidity: 78%   Direction: 190°S
Pressure: 30.09"   Gusts: NA
Location:  53.78°N, 77.62°W
Report Text: CYGL 182100Z 19006KT 15SM SKC M15/M18 A3009 RMK SLP213
Loading
Personal Weather Stations






























Interactive Weather Map New forecast layout! Learn more

10-Day Weather Forecast

Advertisements
Track Severe Weather on mobile